< < Back
Terminal Aerodrome Forecast


Current Version              Previous Versions:   1  2  3  4  5  6  7  8  9  

Terminal Aerodrome Forecast

123
FTUS42 KTAE 200500
TAFDHN
TAF
KDHN 200526Z 2006/2106 00000KT P6SM FEW060 BKN200
     FM201000 00000KT 4SM BR SKC
     FM201300 29007KT P6SM SCT040=

Latest METAR

323
SAUS70 KWBC 210400
MTRDHN
METAR KDHN 210353Z AUTO 25004KT 10SM CLR 25/23 A3014 RMK AO2 SLP200
T02500228


USA.gov is the U.S. government's official web portal to all federal, state and local government web resources and services.